createdAt,value
2023-04-02T00:00:18.512Z,100067.88
2023-04-02T00:02:58.837Z,100073.03
2023-04-02T00:05:51.290Z,100087.13
2023-04-02T00:08:26.097Z,100082.78
2023-04-02T00:10:57.978Z,100093.91
2023-04-02T00:13:33.989Z,100096.38
2023-04-02T00:16:08.364Z,100104.38
2023-04-02T00:18:44.233Z,100097.47
2023-04-02T00:21:21.191Z,100110.94
2023-04-02T00:23:49.197Z,100114.78
2023-04-02T00:26:25.348Z,100133.41
2023-04-02T00:28:53.711Z,100128.75
2023-04-02T00:31:23.645Z,100132.88
2023-04-02T00:33:53.171Z,100145.19
2023-04-02T00:36:26.558Z,100146.97
2023-04-02T00:38:59.520Z,100154.69
2023-04-02T00:41:31.968Z,100153.28
2023-04-02T00:44:01.451Z,100149.19
2023-04-02T00:46:46.662Z,100160.28
2023-04-02T00:49:35.112Z,100156.91
2023-04-02T00:52:08.226Z,100163.50
2023-04-02T00:57:33.476Z,100176.63
2023-04-02T01:00:19.767Z,100182.03
2023-04-02T01:03:28.975Z,100190.91
2023-04-02T01:06:03.091Z,100193.59
2023-04-02T01:08:56.446Z,100195.22
2023-04-02T01:11:47.539Z,100204.22
2023-04-02T01:14:34.817Z,100218.97
2023-04-02T01:17:20.521Z,100218.00
2023-04-02T01:20:34.192Z,100217.19
2023-04-02T01:23:09.148Z,100218.31
2023-04-02T01:25:45.678Z,100223.22
2023-04-02T01:28:20.456Z,100224.47
2023-04-02T01:30:56.002Z,100240.06
2023-04-02T01:33:30.737Z,100243.78
2023-04-02T01:36:11.439Z,100246.41
2023-04-02T01:38:51.683Z,100250.28
2023-04-02T01:41:32.558Z,100257.19
2023-04-02T01:44:07.761Z,100253.69
2023-04-02T01:46:42.264Z,100261.41
2023-04-02T01:49:15.472Z,100262.56
2023-04-02T01:51:50.767Z,100277.50
2023-04-02T01:54:22.197Z,100280.59
2023-04-02T01:56:51.755Z,100287.25
2023-04-02T01:59:22.570Z,100293.59
2023-04-02T02:02:03.075Z,100287.75
2023-04-02T02:04:34.410Z,100290.25
2023-04-02T02:07:05.039Z,100307.97
2023-04-02T02:09:35.946Z,100310.19
2023-04-02T02:12:05.690Z,100311.16
2023-04-02T02:14:33.595Z,100319.47
2023-04-02T02:17:15.766Z,100322.38
2023-04-02T02:19:47.831Z,100323.25
2023-04-02T02:22:27.777Z,100330.09
2023-04-02T02:24:57.847Z,100333.13
2023-04-02T02:27:50.538Z,100334.41
2023-04-02T02:30:27.013Z,100344.75
2023-04-02T02:33:05.271Z,100346.13
2023-04-02T02:35:43.160Z,100359.78
2023-04-02T02:38:41.576Z,100362.25
2023-04-02T02:41:24.516Z,100363.69
2023-04-02T02:44:03.141Z,100371.66
2023-04-02T02:46:34.174Z,100377.63
2023-04-02T02:49:07.161Z,100375.19
2023-04-02T02:51:46.215Z,100376.16
2023-04-02T02:54:20.914Z,100385.28
2023-04-02T02:56:55.744Z,100395.75
2023-04-02T02:59:24.813Z,100400.38
2023-04-02T03:01:53.674Z,100406.75
2023-04-02T03:04:25.085Z,100412.56
2023-04-02T03:06:58.567Z,100417.66
2023-04-02T03:09:41.872Z,100419.56
2023-04-02T03:12:32.666Z,100430.75
2023-04-02T03:15:12.378Z,100431.28
2023-04-02T03:17:51.443Z,100443.25
2023-04-02T03:20:31.159Z,100446.19
2023-04-02T03:23:13.136Z,100450.44
2023-04-02T03:25:56.205Z,100462.16
2023-04-02T03:28:32.811Z,100465.44
2023-04-02T03:31:06.879Z,100467.13
2023-04-02T03:33:42.207Z,100474.75
2023-04-02T03:36:22.798Z,100470.72
2023-04-02T03:39:01.070Z,100483.84
2023-04-02T03:41:39.273Z,100488.69
2023-04-02T03:44:24.012Z,100480.66
2023-04-02T03:46:58.039Z,100497.34
2023-04-02T03:49:36.691Z,100503.44
2023-04-02T03:52:12.260Z,100506.47
2023-04-02T03:54:54.254Z,100509.72
2023-04-02T03:57:33.886Z,100507.97
2023-04-02T04:00:16.434Z,100524.25
2023-04-02T04:02:50.806Z,100531.50
2023-04-02T04:05:26.126Z,100538.38
2023-04-02T04:08:03.074Z,100535.66
2023-04-02T04:10:33.236Z,100537.75
2023-04-02T04:13:09.758Z,100551.03
2023-04-02T04:15:48.182Z,100561.78
2023-04-02T04:18:29.818Z,100571.25
2023-04-02T04:21:03.525Z,100568.69
2023-04-02T04:23:41.239Z,100582.16
2023-04-02T04:26:24.747Z,100580.53
2023-04-02T04:29:13.998Z,100585.63
2023-04-02T04:31:47.190Z,100589.31
2023-04-02T04:34:25.051Z,100592.41
2023-04-02T04:37:01.683Z,100601.34
2023-04-02T04:39:47.159Z,100619.84
2023-04-02T04:42:23.959Z,100618.63
2023-04-02T04:45:00.426Z,100627.78
2023-04-02T04:47:35.996Z,100632.69
2023-04-02T04:50:11.474Z,100633.41
2023-04-02T04:52:43.518Z,100627.97
2023-04-02T04:55:28.705Z,100642.75
2023-04-02T04:58:08.535Z,100648.63
2023-04-02T05:00:54.134Z,100649.53
2023-04-02T05:03:33.512Z,100659.53
2023-04-02T05:06:11.818Z,100666.53
2023-04-02T05:08:49.120Z,100661.75
2023-04-02T05:11:30.458Z,100675.88
2023-04-02T05:14:05.349Z,100685.03
2023-04-02T05:16:42.217Z,100687.09
2023-04-02T05:19:18.711Z,100696.09
2023-04-02T05:21:55.664Z,100707.53
2023-04-02T05:24:44.086Z,100720.25
2023-04-02T05:27:29.052Z,100731.03
2023-04-02T05:30:09.641Z,100724.13
2023-04-02T05:32:45.986Z,100731.94
2023-04-02T05:35:19.315Z,100739.72
2023-04-02T05:37:48.990Z,100747.53
2023-04-02T05:40:27.722Z,100750.34
2023-04-02T05:43:01.438Z,100758.81
2023-04-02T05:45:35.538Z,100759.00
2023-04-02T05:48:17.205Z,100765.72
2023-04-02T05:50:51.539Z,100776.69
2023-04-02T05:53:33.479Z,100781.56
2023-04-02T05:56:06.387Z,100781.44
2023-04-02T05:58:45.740Z,100788.53
2023-04-02T06:01:39.137Z,100785.16
2023-04-02T06:04:28.752Z,100799.84
2023-04-02T06:07:08.849Z,100802.38
2023-04-02T06:09:46.714Z,100800.81
2023-04-02T06:12:28.576Z,100811.41
2023-04-02T06:14:58.785Z,100816.72
2023-04-02T06:17:33.363Z,100824.94
2023-04-02T06:20:06.737Z,100829.38
2023-04-02T06:22:39.200Z,100837.28
2023-04-02T06:25:20.527Z,100836.59
2023-04-02T06:27:53.909Z,100850.78
2023-04-02T06:30:30.802Z,100861.72
2023-04-02T06:32:59.248Z,100853.66
2023-04-02T06:35:28.527Z,100860.00
2023-04-02T06:38:07.053Z,100871.25
2023-04-02T06:40:44.647Z,100866.13
2023-04-02T06:43:33.514Z,100870.38
2023-04-02T06:46:34.212Z,100870.38
2023-04-02T06:49:23.346Z,100885.06
2023-04-02T06:51:58.487Z,100887.72
2023-04-02T06:54:27.189Z,100894.44
2023-04-02T06:57:00.118Z,100908.22
2023-04-02T06:59:34.722Z,100907.34
2023-04-02T07:02:26.053Z,100917.19
2023-04-02T07:05:01.443Z,100925.41
2023-04-02T07:07:30.475Z,100931.22
2023-04-02T07:09:59.434Z,100936.19
2023-04-02T07:12:27.667Z,100939.97
2023-04-02T07:14:56.362Z,100953.63
2023-04-02T07:17:26.432Z,100949.81
2023-04-02T07:19:54.312Z,100949.13
2023-04-02T07:22:22.777Z,100957.59
2023-04-02T07:24:55.467Z,100964.06
2023-04-02T07:27:23.274Z,100981.94
2023-04-02T07:29:51.026Z,100968.91
2023-04-02T07:32:19.861Z,100983.97
2023-04-02T07:34:48.986Z,100987.31
2023-04-02T07:37:17.185Z,100995.28
2023-04-02T07:39:45.242Z,100998.84
2023-04-02T07:42:13.053Z,100996.53
2023-04-02T07:44:41.024Z,101011.38
2023-04-02T07:47:10.728Z,101015.63
2023-04-02T07:49:38.489Z,101011.84
2023-04-02T07:52:07.673Z,101017.41
2023-04-02T07:54:35.895Z,101020.91
2023-04-02T07:57:04.017Z,101011.28
2023-04-02T07:59:31.780Z,101023.31
2023-04-02T08:01:59.691Z,101019.88
2023-04-02T08:04:27.591Z,101023.94
2023-04-02T08:06:55.308Z,101031.38
2023-04-02T08:09:24.526Z,101030.13
2023-04-02T08:11:52.575Z,101039.59
2023-04-02T08:14:20.428Z,101042.53
2023-04-02T08:16:51.917Z,101042.53
2023-04-02T08:19:20.603Z,101056.59
2023-04-02T08:21:51.538Z,101062.78
2023-04-02T08:24:20.323Z,101063.78
2023-04-02T08:26:51.392Z,101069.25
2023-04-02T08:29:19.459Z,101080.09
2023-04-02T08:31:47.878Z,101084.66
2023-04-02T08:34:15.821Z,101096.03
2023-04-02T08:36:45.432Z,101093.56
2023-04-02T08:39:13.817Z,101080.59
2023-04-02T08:41:47.317Z,101098.69
2023-04-02T08:44:40.998Z,101094.25
2023-04-02T08:47:10.941Z,101099.75
2023-04-02T08:49:58.336Z,101105.97
2023-04-02T08:52:31.334Z,101115.50
2023-04-02T08:55:01.477Z,101123.84
2023-04-02T08:57:41.702Z,101130.16
2023-04-02T09:00:32.530Z,101129.53
2023-04-02T09:03:08.708Z,101138.75
2023-04-02T09:05:42.857Z,101137.50
2023-04-02T09:08:19.823Z,101143.19
2023-04-02T09:10:59.185Z,101141.94
2023-04-02T09:13:33.189Z,101156.13
2023-04-02T09:16:11.238Z,101158.97
2023-04-02T09:18:40.590Z,101154.31
2023-04-02T09:21:33.136Z,101164.09
2023-04-02T09:24:02.823Z,101169.00
2023-04-02T09:26:33.900Z,101168.13
2023-04-02T09:29:25.231Z,101180.16
2023-04-02T09:32:07.468Z,101180.50
2023-04-02T09:34:37.027Z,101188.78
2023-04-02T09:37:09.705Z,101191.69
2023-04-02T09:39:38.187Z,101199.06
2023-04-02T09:42:08.507Z,101201.97
2023-04-02T09:44:37.103Z,101213.13
2023-04-02T09:47:25.012Z,101212.25
2023-04-02T09:49:53.347Z,101209.94
2023-04-02T09:52:28.388Z,101201.19
2023-04-02T09:55:21.897Z,101216.09
2023-04-02T09:58:05.833Z,101209.28
2023-04-02T10:00:34.425Z,101215.81
2023-04-02T10:03:14.790Z,101226.16
2023-04-02T10:05:44.041Z,101227.69
2023-04-02T10:08:20.837Z,101247.63
2023-04-02T10:10:54.806Z,101255.44
2023-04-02T10:13:30.097Z,101249.56
2023-04-02T10:16:04.054Z,101249.56
2023-04-02T10:18:44.572Z,101259.22
2023-04-02T10:21:18.441Z,101270.50
2023-04-02T10:23:46.817Z,101274.53
2023-04-02T10:26:46.825Z,101274.72
2023-04-02T10:29:34.176Z,101277.91
2023-04-02T10:32:12.520Z,101262.44
2023-04-02T10:34:53.043Z,101271.84
2023-04-02T10:38:09.689Z,101266.75
2023-04-02T10:40:47.160Z,101280.91
2023-04-02T10:44:16.666Z,101274.44
2023-04-02T10:47:04.338Z,101274.47
2023-04-02T10:49:42.968Z,101282.72
2023-04-02T10:52:21.503Z,101281.91
2023-04-02T10:54:52.798Z,101278.56
2023-04-02T10:57:34.737Z,101279.09
2023-04-02T11:00:20.218Z,101292.63
2023-04-02T11:02:58.665Z,101288.31
2023-04-02T11:05:43.384Z,101286.63
2023-04-02T11:08:20.780Z,101282.41
2023-04-02T11:10:55.858Z,101280.38
2023-04-02T11:13:31.140Z,101282.38
2023-04-02T11:15:59.666Z,101290.56
2023-04-02T11:18:36.081Z,101294.19
2023-04-02T11:21:28.495Z,101298.28
2023-04-02T11:24:01.633Z,101310.09
2023-04-02T11:26:41.265Z,101313.97
2023-04-02T11:29:21.528Z,101318.09
2023-04-02T11:32:11.697Z,101325.75
2023-04-02T11:35:25.868Z,101326.53
2023-04-02T11:37:56.862Z,101321.78
2023-04-02T11:40:48.361Z,101332.50
2023-04-02T11:44:00.294Z,101319.72
2023-04-02T11:46:45.805Z,101322.66
2023-04-02T11:49:56.882Z,101331.81
2023-04-02T11:52:31.395Z,101339.47
2023-04-02T11:55:17.524Z,101343.56
2023-04-02T11:58:32.336Z,101342.16
2023-04-02T12:01:30.112Z,101352.44
2023-04-02T12:04:54.879Z,101357.47
2023-04-02T12:07:52.397Z,101361.56
2023-04-02T12:10:23.652Z,101355.06
2023-04-02T12:12:52.058Z,101363.22
2023-04-02T12:15:43.129Z,101364.72
2023-04-02T12:18:21.532Z,101370.41
2023-04-02T12:20:52.555Z,101367.41
2023-04-02T12:23:24.466Z,101376.78
2023-04-02T12:25:59.983Z,101386.19
2023-04-02T12:28:29.120Z,101382.22
2023-04-02T12:31:13.076Z,101379.59
2023-04-02T12:33:42.915Z,101371.72
2023-04-02T12:36:21.299Z,101371.41
2023-04-02T12:38:52.341Z,101378.41
2023-04-02T12:41:27.183Z,101388.03
2023-04-02T12:44:00.410Z,101385.75
2023-04-02T12:46:32.340Z,101384.84
2023-04-02T12:49:06.783Z,101390.63
2023-04-02T12:51:37.640Z,101385.06
2023-04-02T12:54:06.318Z,101399.94
2023-04-02T12:56:34.362Z,101407.78
2023-04-02T12:59:02.400Z,101405.13
2023-04-02T13:01:33.897Z,101412.97
2023-04-02T13:04:05.036Z,101413.78
2023-04-02T13:06:35.701Z,101411.47
2023-04-02T13:09:07.507Z,101396.44
2023-04-02T13:11:38.434Z,101405.91
2023-04-02T13:14:16.755Z,101402.59
2023-04-02T13:16:48.133Z,101395.22
2023-04-02T13:19:30.934Z,101392.53
2023-04-02T13:22:02.434Z,101401.19
2023-04-02T13:24:33.331Z,101404.31
2023-04-02T13:27:03.619Z,101401.13
2023-04-02T13:29:33.891Z,101409.25
2023-04-02T13:32:07.800Z,101412.03
2023-04-02T13:34:35.911Z,101428.56
2023-04-02T13:37:03.940Z,101409.13
2023-04-02T13:39:31.939Z,101417.56
2023-04-02T13:42:03.029Z,101413.47
2023-04-02T13:44:34.399Z,101426.94
2023-04-02T13:47:04.131Z,101424.06
2023-04-02T13:49:32.443Z,101432.19
2023-04-02T13:52:04.269Z,101430.28
2023-04-02T13:54:41.170Z,101437.00
2023-04-02T13:57:09.180Z,101432.56
2023-04-02T13:59:37.215Z,101437.97
2023-04-02T14:02:13.679Z,101428.97
2023-04-02T14:04:49.269Z,101423.41
2023-04-02T14:07:46.876Z,101429.69
2023-04-02T14:10:32.697Z,101434.53
2023-04-02T14:13:15.374Z,101438.41
2023-04-02T14:16:01.624Z,101436.06
2023-04-02T14:18:47.579Z,101446.06
2023-04-02T14:21:27.189Z,101446.81
2023-04-02T14:24:15.538Z,101437.84
2023-04-02T14:26:57.862Z,101466.44
2023-04-02T14:29:35.431Z,101448.56
2023-04-02T14:32:10.619Z,101453.88
2023-04-02T14:34:54.934Z,101456.38
2023-04-02T14:37:37.890Z,101462.81
2023-04-02T14:40:21.884Z,101463.41
2023-04-02T14:43:00.623Z,101460.47
2023-04-02T14:45:49.789Z,101459.25
2023-04-02T14:48:32.950Z,101461.31
2023-04-02T14:51:10.269Z,101468.63
2023-04-02T14:53:54.317Z,101464.66
2023-04-02T14:56:24.969Z,101471.91
2023-04-02T14:59:12.175Z,101473.66
2023-04-02T15:01:45.039Z,101478.03
2023-04-02T15:04:19.351Z,101472.28
2023-04-02T15:06:55.506Z,101477.66
2023-04-02T15:09:30.276Z,101475.88
2023-04-02T15:12:07.499Z,101471.78
2023-04-02T15:14:40.942Z,101482.13
2023-04-02T15:17:11.922Z,101474.59
2023-04-02T15:19:40.337Z,101479.44
2023-04-02T15:22:27.355Z,101488.91
2023-04-02T15:25:16.633Z,101480.47
2023-04-02T15:28:01.937Z,101482.94
2023-04-02T15:30:35.708Z,101491.25
2023-04-02T15:33:38.832Z,101480.81
2023-04-02T15:36:40.387Z,101488.78
2023-04-02T15:40:03.174Z,101490.69
2023-04-02T15:42:39.429Z,101483.63
2023-04-02T15:45:30.439Z,101490.31
2023-04-02T15:48:18.746Z,101498.47
2023-04-02T15:51:03.714Z,101496.94
2023-04-02T15:53:48.072Z,101505.34
2023-04-02T15:56:46.092Z,101510.53
2023-04-02T15:59:40.904Z,101509.66
2023-04-02T16:02:39.445Z,101514.75
2023-04-02T16:05:27.249Z,101519.28
2023-04-02T16:08:27.349Z,101522.72
2023-04-02T16:10:55.774Z,101520.53
2023-04-02T16:13:33.999Z,101532.38
2023-04-02T16:16:07.318Z,101531.38
2023-04-02T16:18:49.826Z,101535.19
2023-04-02T16:21:35.540Z,101536.91
2023-04-02T16:24:12.837Z,101534.69
2023-04-02T16:27:00.040Z,101527.06
2023-04-02T16:29:55.896Z,101540.75
2023-04-02T16:32:54.070Z,101533.47
2023-04-02T16:35:47.123Z,101540.97
2023-04-02T16:38:43.520Z,101527.19
2023-04-02T16:41:27.214Z,101539.16
2023-04-02T16:44:15.850Z,101541.78
2023-04-02T16:47:03.423Z,101550.09
2023-04-02T16:49:43.379Z,101556.66
2023-04-02T16:52:42.102Z,101560.00
2023-04-02T16:55:46.817Z,101560.28
2023-04-02T16:58:37.773Z,101564.28
2023-04-02T17:01:22.785Z,101574.28
2023-04-02T17:04:14.766Z,101576.53
2023-04-02T17:07:01.690Z,101582.00
2023-04-02T17:09:44.610Z,101585.66
2023-04-02T17:12:21.008Z,101588.28
2023-04-02T17:14:57.480Z,101593.22
2023-04-02T17:17:27.663Z,101599.84
2023-04-02T17:20:09.842Z,101603.53
2023-04-02T17:22:37.992Z,101603.09
2023-04-02T17:25:23.287Z,101608.09
2023-04-02T17:27:58.046Z,101612.28
2023-04-02T17:30:41.117Z,101613.75
2023-04-02T17:33:13.661Z,101617.44
2023-04-02T17:36:05.606Z,101623.16
2023-04-02T17:38:50.929Z,101630.44
2023-04-02T17:41:28.984Z,101633.44
2023-04-02T17:44:08.866Z,101639.16
2023-04-02T17:46:47.717Z,101642.72
2023-04-02T17:49:25.069Z,101650.19
2023-04-02T17:52:03.350Z,101650.78
2023-04-02T17:54:46.682Z,101651.22
2023-04-02T17:57:34.481Z,101658.47
2023-04-02T18:00:22.883Z,101655.19
2023-04-02T18:03:25.611Z,101666.38
2023-04-02T18:06:03.631Z,101663.53
2023-04-02T18:08:49.494Z,101668.25
2023-04-02T18:11:31.977Z,101668.00
2023-04-02T18:14:09.150Z,101670.44
2023-04-02T18:16:49.798Z,101675.28
2023-04-02T18:19:23.864Z,101673.16
2023-04-02T18:22:02.196Z,101675.38
2023-04-02T18:25:06.742Z,101679.16
2023-04-02T18:27:57.946Z,101681.09
2023-04-02T18:30:36.292Z,101684.31
2023-04-02T18:33:26.703Z,101695.63
2023-04-02T18:36:06.493Z,101694.50
2023-04-02T18:38:47.598Z,101693.38
2023-04-02T18:41:40.319Z,101698.44
2023-04-02T18:44:25.601Z,101704.16
2023-04-02T18:46:59.530Z,101710.56
2023-04-02T18:49:36.167Z,101715.03
2023-04-02T18:52:12.548Z,101725.66
2023-04-02T18:54:46.443Z,101723.72
2023-04-02T18:57:22.853Z,101729.53
2023-04-02T19:00:00.284Z,101734.88
2023-04-02T19:02:41.293Z,101735.19
2023-04-02T19:05:23.632Z,101741.75
2023-04-02T19:08:02.526Z,101740.44
2023-04-02T19:10:36.758Z,101742.38
2023-04-02T19:13:14.341Z,101752.88
2023-04-02T19:16:07.588Z,101748.75
2023-04-02T19:18:51.709Z,101750.03
2023-04-02T19:21:31.594Z,101751.00
2023-04-02T19:24:22.190Z,101754.88
2023-04-02T19:26:59.022Z,101762.66
2023-04-02T19:29:49.374Z,101759.59
2023-04-02T19:32:33.549Z,101767.09
2023-04-02T19:35:16.146Z,101769.28
2023-04-02T19:37:57.836Z,101767.91
2023-04-02T19:40:39.744Z,101779.13
2023-04-02T19:43:10.715Z,101773.22
2023-04-02T19:45:43.478Z,101778.00
2023-04-02T19:48:17.703Z,101779.78
2023-04-02T19:50:46.931Z,101786.16
2023-04-02T19:53:15.926Z,101782.84
2023-04-02T19:55:45.558Z,101791.72
2023-04-02T19:58:25.933Z,101790.19
2023-04-02T20:00:55.459Z,101795.53
2023-04-02T20:03:23.936Z,101797.69
2023-04-02T20:05:52.379Z,101796.63
2023-04-02T20:08:20.882Z,101798.91
2023-04-02T20:10:49.242Z,101802.38
2023-04-02T20:13:17.180Z,101804.97
2023-04-02T20:15:45.131Z,101809.50
2023-04-02T20:18:14.409Z,101814.41
2023-04-02T20:20:46.086Z,101816.41
2023-04-02T20:23:15.704Z,101815.69
2023-04-02T20:25:46.366Z,101824.47
2023-04-02T20:28:14.469Z,101824.81
2023-04-02T20:30:42.337Z,101827.41
2023-04-02T20:33:10.502Z,101824.47
2023-04-02T20:35:40.062Z,101826.97
2023-04-02T20:38:08.928Z,101833.50
2023-04-02T20:40:40.517Z,101832.34
2023-04-02T20:43:09.549Z,101841.69
2023-04-02T20:45:37.912Z,101835.81
2023-04-02T20:48:07.797Z,101840.72
2023-04-02T20:50:36.224Z,101845.88
2023-04-02T20:53:08.117Z,101847.31
2023-04-02T20:55:37.913Z,101845.69
2023-04-02T20:58:05.952Z,101854.88
2023-04-02T21:00:33.898Z,101860.84
2023-04-02T21:03:02.162Z,101869.03
2023-04-02T21:05:33.283Z,101872.81
2023-04-02T21:08:01.311Z,101866.13
2023-04-02T21:10:30.614Z,101882.25
2023-04-02T21:12:58.366Z,101870.66
2023-04-02T21:15:26.292Z,101879.38
2023-04-02T21:17:54.126Z,101877.06
2023-04-02T21:20:22.002Z,101869.91
2023-04-02T21:22:52.227Z,101879.56
2023-04-02T21:25:20.206Z,101867.00
2023-04-02T21:27:49.689Z,101882.66
2023-04-02T21:30:20.499Z,101881.22
2023-04-02T21:32:53.597Z,101879.03
2023-04-02T21:35:21.934Z,101876.31
2023-04-02T21:37:53.140Z,101894.75
2023-04-02T21:40:24.148Z,101891.50
2023-04-02T21:42:55.954Z,101889.25
2023-04-02T21:45:23.882Z,101896.59
2023-04-02T21:47:51.770Z,101893.94
2023-04-02T21:50:19.646Z,101893.44
2023-04-02T21:52:47.627Z,101896.31
2023-04-02T21:55:18.459Z,101902.47
2023-04-02T21:57:46.421Z,101911.47
2023-04-02T22:00:17.335Z,101908.09
2023-04-02T22:02:45.428Z,101914.00
2023-04-02T22:05:13.592Z,101920.34
2023-04-02T22:07:41.470Z,101924.19
2023-04-02T22:10:10.533Z,101927.34
2023-04-02T22:12:38.433Z,101922.69
2023-04-02T22:15:07.360Z,101934.44
2023-04-02T22:17:36.600Z,101931.47
2023-04-02T22:20:05.545Z,101936.69
2023-04-02T22:22:33.358Z,101940.63
2023-04-02T22:25:01.701Z,101949.91
2023-04-02T22:27:29.636Z,101952.84
2023-04-02T22:29:57.735Z,101952.63
2023-04-02T22:32:26.104Z,101955.31
2023-04-02T22:34:58.588Z,101958.78
2023-04-02T22:37:26.654Z,101964.19
2023-04-02T22:39:55.118Z,101964.25
2023-04-02T22:42:23.132Z,101962.06
2023-04-02T22:44:50.982Z,101963.44
2023-04-02T22:47:18.831Z,101969.72
2023-04-02T22:49:46.772Z,101975.78
2023-04-02T22:52:16.203Z,101971.53
2023-04-02T22:54:44.053Z,101985.81
2023-04-02T22:57:12.856Z,101983.31
2023-04-02T22:59:40.857Z,101987.16
2023-04-02T23:02:08.747Z,101992.06
2023-04-02T23:04:36.787Z,101989.28
2023-04-02T23:07:04.710Z,101994.75
2023-04-02T23:09:33.883Z,101999.47
2023-04-02T23:12:01.660Z,102004.38
2023-04-02T23:14:29.616Z,102000.56
2023-04-02T23:16:57.688Z,102006.25
2023-04-02T23:19:25.657Z,102005.06
2023-04-02T23:21:53.517Z,102011.31
2023-04-02T23:24:21.492Z,102013.31
2023-04-02T23:26:50.893Z,102011.75
2023-04-02T23:29:18.939Z,102020.00
2023-04-02T23:31:47.047Z,102020.22
2023-04-02T23:34:15.347Z,102020.00
2023-04-02T23:36:43.320Z,102015.97
2023-04-02T23:39:13.658Z,102023.44
2023-04-02T23:41:42.963Z,102021.53
2023-04-02T23:44:12.390Z,102019.41
2023-04-02T23:46:40.180Z,102016.84
2023-04-02T23:49:12.505Z,102015.06
2023-04-02T23:51:40.844Z,102012.81
2023-04-02T23:54:10.661Z,102025.97
2023-04-02T23:56:38.621Z,102027.53
2023-04-02T23:59:06.930Z,102038.25
